Αρχική σελίδα
METAR-TAF:

METAR-TAF

Αεροδρόμια :

Uberaba, Μίνας Ζεράις, Βραζιλία

γεωγραφικό πλάτος: 19-47S, γεωγραφικό μήκος: 047-58W, υψόμετρο: 807 μ

Παρών καιρός

Η αναφορά έγινε 28 λεπτά πριν, στις 22:00 UTC
Άνεμος 6 kt από Β/BA
Θερμοκρασία 24°C
Υγρασία 44%
Πίεση 1021 hPa
Ορατότητα 10 χλμ και άνω
Δεν υπάρχουν νέφη με βάση κάτω από τα 1500 μ. και δεν υπάρχουν νέφη σωρειτομελανίτες.

METAR: SBUR 142200Z 02006KT CAVOK 24/11 Q1021

Χρόνος: 19:28 (22:28 UTC)

Πρόγνωση Καιρού

Η αναφορά έγινε 8 ώρες και 28 λεπτά πριν, στις 14:00 UTC
Η πρόγνωση ισχύει από τις 14 στις 18 UTC έως τις 15 στις 06 UTC
Άνεμος 7 kt από BA
Ορατότητα 10 χλμ και άνω
Δεν υπάρχουν νέφη με βάση κάτω από τα 1500 μ. και δεν υπάρχουν νέφη σωρειτομελανίτες.

TAF: SBUR 141400Z 1418/1506 04007KT CAVOK TX28/1418Z TN19/1505Z RMK PGF

Μετεωρολογικές αναφορές και προγνώσεις για περισσότερα από 4000 αεροδρόμια (δελτία METAR και TAF).

Οι διαθέσιμοι σταθμοί απεικονίζονται στο χάρτη με κίτρινες και κόκκινες κουκκίδες.

Μετακινήστε το ποντίκι πάνω από τις κουκκίδες για να δείτε το όνομα του σταθμού.

Στη συνέχεια, κάντε κλικ για να δείτε τις μετεωρολογικές αναφορές και τις προγνώσεις καιρού.

Για να αλλάξετε το χάρτη: κάντε κλικ στα πράσινα κουμπιά με τον μαύρο σταυρό για να ζουμάρετε, στο πράσινο κουμπί με την παύλα για να αφαιρέσετε το ζουμ ή στα πράσινα βέλη για να αντιπαραβάλλετε χάρτες.


METAR-TAF: